sensor_id;sensor_type;location;lat;lon;timestamp;P1;durP1;ratioP1;P2;durP2;ratioP2
4794;SDS011;2411;47.060;15.064;2023-03-15T00:00:24;2.30;;;0.50;;
4794;SDS011;2411;47.060;15.064;2023-03-15T00:02:51;1.07;;;0.60;;
4794;SDS011;2411;47.060;15.064;2023-03-15T00:05:18;0.50;;;0.50;;
4794;SDS011;2411;47.060;15.064;2023-03-15T00:07:47;0.50;;;0.50;;
4794;SDS011;2411;47.060;15.064;2023-03-15T00:10:14;0.40;;;0.40;;
4794;SDS011;2411;47.060;15.064;2023-03-15T00:12:41;2.73;;;0.67;;
4794;SDS011;2411;47.060;15.064;2023-03-15T00:15:09;0.50;;;0.50;;
4794;SDS011;2411;47.060;15.064;2023-03-15T00:17:39;0.47;;;0.47;;
4794;SDS011;2411;47.060;15.064;2023-03-15T00:20:07;0.50;;;0.50;;
4794;SDS011;2411;47.060;15.064;2023-03-15T00:22:36;0.67;;;0.40;;
4794;SDS011;2411;47.060;15.064;2023-03-15T00:25:03;0.53;;;0.53;;
4794;SDS011;2411;47.060;15.064;2023-03-15T00:27:31;0.53;;;0.53;;
4794;SDS011;2411;47.060;15.064;2023-03-15T00:29:58;0.40;;;0.40;;
4794;SDS011;2411;47.060;15.064;2023-03-15T00:32:25;0.40;;;0.40;;
4794;SDS011;2411;47.060;15.064;2023-03-15T00:34:53;0.73;;;0.40;;
4794;SDS011;2411;47.060;15.064;2023-03-15T00:37:20;0.43;;;0.43;;
4794;SDS011;2411;47.060;15.064;2023-03-15T00:39:47;0.70;;;0.50;;
4794;SDS011;2411;47.060;15.064;2023-03-15T00:42:14;0.87;;;0.60;;
4794;SDS011;2411;47.060;15.064;2023-03-15T00:44:42;0.40;;;0.40;;
4794;SDS011;2411;47.060;15.064;2023-03-15T00:47:10;0.40;;;0.40;;
4794;SDS011;2411;47.060;15.064;2023-03-15T00:49:39;0.40;;;0.40;;
4794;SDS011;2411;47.060;15.064;2023-03-15T00:52:07;1.13;;;0.60;;
4794;SDS011;2411;47.060;15.064;2023-03-15T00:54:34;0.73;;;0.70;;
4794;SDS011;2411;47.060;15.064;2023-03-15T00:57:01;2.80;;;0.50;;
4794;SDS011;2411;47.060;15.064;2023-03-15T00:59:30;0.40;;;0.40;;
4794;SDS011;2411;47.060;15.064;2023-03-15T01:02:01;2.17;;;0.60;;
4794;SDS011;2411;47.060;15.064;2023-03-15T01:04:29;0.50;;;0.50;;
4794;SDS011;2411;47.060;15.064;2023-03-15T01:06:57;0.73;;;0.57;;
4794;SDS011;2411;47.060;15.064;2023-03-15T01:09:25;0.50;;;0.50;;
4794;SDS011;2411;47.060;15.064;2023-03-15T01:11:52;0.60;;;0.60;;
4794;SDS011;2411;47.060;15.064;2023-03-15T01:14:19;0.50;;;0.50;;
4794;SDS011;2411;47.060;15.064;2023-03-15T01:16:46;0.70;;;0.50;;
4794;SDS011;2411;47.060;15.064;2023-03-15T01:19:13;0.60;;;0.60;;
4794;SDS011;2411;47.060;15.064;2023-03-15T01:21:41;1.57;;;0.50;;
4794;SDS011;2411;47.060;15.064;2023-03-15T01:24:11;0.50;;;0.50;;
4794;SDS011;2411;47.060;15.064;2023-03-15T01:26:39;0.50;;;0.50;;
4794;SDS011;2411;47.060;15.064;2023-03-15T01:29:07;0.40;;;0.40;;
4794;SDS011;2411;47.060;15.064;2023-03-15T01:31:34;0.97;;;0.47;;
4794;SDS011;2411;47.060;15.064;2023-03-15T01:34:01;0.50;;;0.50;;
4794;SDS011;2411;47.060;15.064;2023-03-15T01:36:29;0.50;;;0.50;;
4794;SDS011;2411;47.060;15.064;2023-03-15T01:38:56;0.57;;;0.50;;
4794;SDS011;2411;47.060;15.064;2023-03-15T01:41:23;0.60;;;0.50;;
4794;SDS011;2411;47.060;15.064;2023-03-15T05:12:35;2.10;;;0.60;;
4794;SDS011;2411;47.060;15.064;2023-03-15T05:17:50;0.90;;;0.60;;
4794;SDS011;2411;47.060;15.064;2023-03-15T05:20:37;0.70;;;0.70;;
4794;SDS011;2411;47.060;15.064;2023-03-15T05:23:04;0.50;;;0.50;;
4794;SDS011;2411;47.060;15.064;2023-03-15T05:25:31;0.47;;;0.47;;
4794;SDS011;2411;47.060;15.064;2023-03-15T05:27:59;0.70;;;0.53;;
4794;SDS011;2411;47.060;15.064;2023-03-15T05:30:30;0.60;;;0.60;;
4794;SDS011;2411;47.060;15.064;2023-03-15T05:32:57;1.33;;;0.53;;
4794;SDS011;2411;47.060;15.064;2023-03-15T05:35:24;0.83;;;0.60;;
4794;SDS011;2411;47.060;15.064;2023-03-15T05:37:54;0.53;;;0.53;;
4794;SDS011;2411;47.060;15.064;2023-03-15T05:40:21;0.90;;;0.50;;
4794;SDS011;2411;47.060;15.064;2023-03-15T05:42:48;0.50;;;0.43;;
4794;SDS011;2411;47.060;15.064;2023-03-15T05:45:15;0.40;;;0.40;;
4794;SDS011;2411;47.060;15.064;2023-03-15T05:47:42;0.60;;;0.60;;
4794;SDS011;2411;47.060;15.064;2023-03-15T05:50:10;0.43;;;0.43;;
4794;SDS011;2411;47.060;15.064;2023-03-15T05:52:37;0.50;;;0.50;;
4794;SDS011;2411;47.060;15.064;2023-03-15T05:55:04;5.80;;;0.60;;
4794;SDS011;2411;47.060;15.064;2023-03-15T05:57:31;0.50;;;0.50;;
4794;SDS011;2411;47.060;15.064;2023-03-15T05:59:58;0.50;;;0.50;;
4794;SDS011;2411;47.060;15.064;2023-03-15T06:02:25;0.50;;;0.50;;
4794;SDS011;2411;47.060;15.064;2023-03-15T06:04:53;0.40;;;0.40;;
4794;SDS011;2411;47.060;15.064;2023-03-15T06:07:20;0.50;;;0.50;;
4794;SDS011;2411;47.060;15.064;2023-03-15T06:09:47;0.53;;;0.40;;
4794;SDS011;2411;47.060;15.064;2023-03-15T06:12:14;1.27;;;0.60;;
4794;SDS011;2411;47.060;15.064;2023-03-15T06:14:41;0.70;;;0.50;;
4794;SDS011;2411;47.060;15.064;2023-03-15T06:17:08;0.40;;;0.40;;
4794;SDS011;2411;47.060;15.064;2023-03-15T06:19:36;2.83;;;0.50;;
4794;SDS011;2411;47.060;15.064;2023-03-15T06:22:03;0.57;;;0.50;;
4794;SDS011;2411;47.060;15.064;2023-03-15T06:24:30;0.50;;;0.50;;
4794;SDS011;2411;47.060;15.064;2023-03-15T06:26:58;0.40;;;0.40;;
4794;SDS011;2411;47.060;15.064;2023-03-15T06:29:26;0.40;;;0.40;;
4794;SDS011;2411;47.060;15.064;2023-03-15T06:31:53;0.40;;;0.40;;
4794;SDS011;2411;47.060;15.064;2023-03-15T06:34:20;1.60;;;0.60;;
4794;SDS011;2411;47.060;15.064;2023-03-15T06:36:47;0.40;;;0.40;;
4794;SDS011;2411;47.060;15.064;2023-03-15T06:39:15;0.40;;;0.40;;
4794;SDS011;2411;47.060;15.064;2023-03-15T06:41:42;0.50;;;0.40;;
4794;SDS011;2411;47.060;15.064;2023-03-15T06:44:09;0.40;;;0.40;;
4794;SDS011;2411;47.060;15.064;2023-03-15T06:46:37;0.40;;;0.40;;
4794;SDS011;2411;47.060;15.064;2023-03-15T06:49:05;0.40;;;0.40;;
4794;SDS011;2411;47.060;15.064;2023-03-15T06:51:32;0.50;;;0.50;;
4794;SDS011;2411;47.060;15.064;2023-03-15T06:53:59;0.50;;;0.50;;
4794;SDS011;2411;47.060;15.064;2023-03-15T06:56:27;0.50;;;0.50;;
4794;SDS011;2411;47.060;15.064;2023-03-15T06:58:54;0.50;;;0.50;;
4794;SDS011;2411;47.060;15.064;2023-03-15T07:01:21;1.57;;;1.47;;
4794;SDS011;2411;47.060;15.064;2023-03-15T07:03:48;0.60;;;0.60;;
4794;SDS011;2411;47.060;15.064;2023-03-15T07:06:16;2.30;;;0.93;;
4794;SDS011;2411;47.060;15.064;2023-03-15T07:08:43;0.40;;;0.40;;
4794;SDS011;2411;47.060;15.064;2023-03-15T07:11:11;0.60;;;0.60;;
4794;SDS011;2411;47.060;15.064;2023-03-15T07:13:39;0.80;;;0.80;;
4794;SDS011;2411;47.060;15.064;2023-03-15T07:16:06;0.40;;;0.40;;
4794;SDS011;2411;47.060;15.064;2023-03-15T07:18:33;3.60;;;0.40;;
4794;SDS011;2411;47.060;15.064;2023-03-15T07:21:00;1.07;;;0.50;;
4794;SDS011;2411;47.060;15.064;2023-03-15T07:23:29;0.30;;;0.30;;
4794;SDS011;2411;47.060;15.064;2023-03-15T07:25:56;0.40;;;0.40;;
4794;SDS011;2411;47.060;15.064;2023-03-15T07:28:24;0.40;;;0.40;;
4794;SDS011;2411;47.060;15.064;2023-03-15T07:30:53;0.50;;;0.50;;
4794;SDS011;2411;47.060;15.064;2023-03-15T07:33:23;0.97;;;0.60;;
4794;SDS011;2411;47.060;15.064;2023-03-15T07:35:52;0.80;;;0.80;;
4794;SDS011;2411;47.060;15.064;2023-03-15T07:38:20;0.50;;;0.50;;
4794;SDS011;2411;47.060;15.064;2023-03-15T07:40:48;0.43;;;0.43;;
4794;SDS011;2411;47.060;15.064;2023-03-15T07:43:16;0.50;;;0.50;;
4794;SDS011;2411;47.060;15.064;2023-03-15T07:45:43;0.40;;;0.40;;
4794;SDS011;2411;47.060;15.064;2023-03-15T07:48:10;0.50;;;0.50;;
4794;SDS011;2411;47.060;15.064;2023-03-15T07:50:38;0.40;;;0.40;;
4794;SDS011;2411;47.060;15.064;2023-03-15T07:53:06;0.40;;;0.40;;
4794;SDS011;2411;47.060;15.064;2023-03-15T07:55:34;0.30;;;0.30;;
4794;SDS011;2411;47.060;15.064;2023-03-15T07:58:01;0.40;;;0.40;;
4794;SDS011;2411;47.060;15.064;2023-03-15T08:00:29;0.70;;;0.40;;
4794;SDS011;2411;47.060;15.064;2023-03-15T08:02:56;0.93;;;0.40;;
4794;SDS011;2411;47.060;15.064;2023-03-15T08:05:24;0.40;;;0.40;;
4794;SDS011;2411;47.060;15.064;2023-03-15T08:07:54;0.30;;;0.30;;
4794;SDS011;2411;47.060;15.064;2023-03-15T08:10:22;0.40;;;0.40;;
4794;SDS011;2411;47.060;15.064;2023-03-15T08:12:49;0.40;;;0.40;;
4794;SDS011;2411;47.060;15.064;2023-03-15T08:15:17;0.60;;;0.40;;
4794;SDS011;2411;47.060;15.064;2023-03-15T08:17:47;0.40;;;0.40;;
4794;SDS011;2411;47.060;15.064;2023-03-15T08:20:15;0.30;;;0.30;;
4794;SDS011;2411;47.060;15.064;2023-03-15T08:22:45;0.40;;;0.40;;
4794;SDS011;2411;47.060;15.064;2023-03-15T08:25:15;0.40;;;0.40;;
4794;SDS011;2411;47.060;15.064;2023-03-15T08:27:44;0.40;;;0.40;;
4794;SDS011;2411;47.060;15.064;2023-03-15T08:30:12;0.70;;;0.40;;
4794;SDS011;2411;47.060;15.064;2023-03-15T08:32:42;0.43;;;0.43;;
4794;SDS011;2411;47.060;15.064;2023-03-15T08:35:11;0.40;;;0.40;;
4794;SDS011;2411;47.060;15.064;2023-03-15T08:37:41;0.80;;;0.50;;
4794;SDS011;2411;47.060;15.064;2023-03-15T08:40:16;0.40;;;0.40;;
4794;SDS011;2411;47.060;15.064;2023-03-15T08:42:51;0.40;;;0.40;;
4794;SDS011;2411;47.060;15.064;2023-03-15T08:45:19;0.40;;;0.40;;
4794;SDS011;2411;47.060;15.064;2023-03-15T08:47:53;0.40;;;0.40;;
4794;SDS011;2411;47.060;15.064;2023-03-15T08:50:24;0.40;;;0.40;;
4794;SDS011;2411;47.060;15.064;2023-03-15T08:52:53;0.40;;;0.40;;
4794;SDS011;2411;47.060;15.064;2023-03-15T08:55:20;0.40;;;0.40;;
4794;SDS011;2411;47.060;15.064;2023-03-15T08:57:47;0.40;;;0.40;;
4794;SDS011;2411;47.060;15.064;2023-03-15T09:00:14;0.40;;;0.40;;
4794;SDS011;2411;47.060;15.064;2023-03-15T09:02:46;0.40;;;0.40;;
4794;SDS011;2411;47.060;15.064;2023-03-15T09:05:15;0.40;;;0.40;;
4794;SDS011;2411;47.060;15.064;2023-03-15T09:07:42;0.40;;;0.40;;
4794;SDS011;2411;47.060;15.064;2023-03-15T09:10:11;0.40;;;0.40;;
4794;SDS011;2411;47.060;15.064;2023-03-15T09:12:44;0.43;;;0.40;;
4794;SDS011;2411;47.060;15.064;2023-03-15T09:15:14;0.40;;;0.40;;
4794;SDS011;2411;47.060;15.064;2023-03-15T09:17:41;1.80;;;0.40;;
4794;SDS011;2411;47.060;15.064;2023-03-15T09:20:09;0.40;;;0.40;;
4794;SDS011;2411;47.060;15.064;2023-03-15T09:22:42;0.30;;;0.30;;
4794;SDS011;2411;47.060;15.064;2023-03-15T09:25:15;0.40;;;0.40;;
4794;SDS011;2411;47.060;15.064;2023-03-15T09:27:42;0.40;;;0.40;;
4794;SDS011;2411;47.060;15.064;2023-03-15T09:30:09;0.57;;;0.40;;
4794;SDS011;2411;47.060;15.064;2023-03-15T09:32:37;0.40;;;0.40;;
4794;SDS011;2411;47.060;15.064;2023-03-15T09:35:05;0.70;;;0.70;;
4794;SDS011;2411;47.060;15.064;2023-03-15T09:37:35;0.30;;;0.30;;
4794;SDS011;2411;47.060;15.064;2023-03-15T09:40:03;0.70;;;0.70;;
4794;SDS011;2411;47.060;15.064;2023-03-15T09:50:53;0.40;;;0.40;;
4794;SDS011;2411;47.060;15.064;2023-03-15T09:53:37;0.57;;;0.47;;
4794;SDS011;2411;47.060;15.064;2023-03-15T09:59:05;0.30;;;0.30;;
4794;SDS011;2411;47.060;15.064;2023-03-15T10:01:36;1.77;;;0.30;;
4794;SDS011;2411;47.060;15.064;2023-03-15T10:06:58;0.60;;;0.60;;
4794;SDS011;2411;47.060;15.064;2023-03-15T10:09:29;0.40;;;0.40;;
4794;SDS011;2411;47.060;15.064;2023-03-15T10:12:05;0.90;;;0.57;;
4794;SDS011;2411;47.060;15.064;2023-03-15T10:19:57;0.50;;;0.50;;
4794;SDS011;2411;47.060;15.064;2023-03-15T10:27:41;0.47;;;0.37;;
4794;SDS011;2411;47.060;15.064;2023-03-15T10:30:27;0.40;;;0.40;;
4794;SDS011;2411;47.060;15.064;2023-03-15T10:33:03;0.33;;;0.33;;
4794;SDS011;2411;47.060;15.064;2023-03-15T10:35:50;0.40;;;0.40;;
4794;SDS011;2411;47.060;15.064;2023-03-15T10:38:24;0.30;;;0.30;;
4794;SDS011;2411;47.060;15.064;2023-03-15T10:40:53;0.40;;;0.40;;
4794;SDS011;2411;47.060;15.064;2023-03-15T10:46:06;0.30;;;0.30;;
4794;SDS011;2411;47.060;15.064;2023-03-15T10:48:34;0.40;;;0.40;;
4794;SDS011;2411;47.060;15.064;2023-03-15T10:51:18;2.47;;;0.40;;
4794;SDS011;2411;47.060;15.064;2023-03-15T10:53:59;0.40;;;0.40;;
4794;SDS011;2411;47.060;15.064;2023-03-15T10:56:34;0.30;;;0.30;;
4794;SDS011;2411;47.060;15.064;2023-03-15T10:59:22;0.30;;;0.30;;
4794;SDS011;2411;47.060;15.064;2023-03-15T11:01:51;3.40;;;0.40;;
4794;SDS011;2411;47.060;15.064;2023-03-15T11:04:32;0.33;;;0.33;;
4794;SDS011;2411;47.060;15.064;2023-03-15T11:07:01;0.30;;;0.30;;
4794;SDS011;2411;47.060;15.064;2023-03-15T11:09:40;0.40;;;0.40;;
4794;SDS011;2411;47.060;15.064;2023-03-15T11:12:09;0.30;;;0.30;;
4794;SDS011;2411;47.060;15.064;2023-03-15T11:14:45;0.60;;;0.40;;
4794;SDS011;2411;47.060;15.064;2023-03-15T11:17:19;0.40;;;0.40;;
4794;SDS011;2411;47.060;15.064;2023-03-15T11:19:59;0.40;;;0.40;;
4794;SDS011;2411;47.060;15.064;2023-03-15T11:22:51;0.30;;;0.30;;
4794;SDS011;2411;47.060;15.064;2023-03-15T11:25:20;0.40;;;0.40;;
4794;SDS011;2411;47.060;15.064;2023-03-15T11:27:51;0.40;;;0.40;;
4794;SDS011;2411;47.060;15.064;2023-03-15T11:30:20;0.60;;;0.40;;
4794;SDS011;2411;47.060;15.064;2023-03-15T11:32:54;0.40;;;0.40;;
4794;SDS011;2411;47.060;15.064;2023-03-15T11:35:31;0.40;;;0.40;;
4794;SDS011;2411;47.060;15.064;2023-03-15T11:38:03;0.30;;;0.30;;
4794;SDS011;2411;47.060;15.064;2023-03-15T11:40:41;1.00;;;0.57;;
4794;SDS011;2411;47.060;15.064;2023-03-15T11:43:17;0.40;;;0.40;;
4794;SDS011;2411;47.060;15.064;2023-03-15T11:51:07;0.43;;;0.40;;
4794;SDS011;2411;47.060;15.064;2023-03-15T11:56:45;0.40;;;0.40;;
4794;SDS011;2411;47.060;15.064;2023-03-15T11:59:31;0.43;;;0.43;;
4794;SDS011;2411;47.060;15.064;2023-03-15T12:04:40;0.50;;;0.50;;
4794;SDS011;2411;47.060;15.064;2023-03-15T12:17:43;0.40;;;0.40;;
4794;SDS011;2411;47.060;15.064;2023-03-15T12:31:33;0.50;;;0.50;;
4794;SDS011;2411;47.060;15.064;2023-03-15T12:34:48;0.63;;;0.63;;
4794;SDS011;2411;47.060;15.064;2023-03-15T12:37:30;0.60;;;0.60;;
4794;SDS011;2411;47.060;15.064;2023-03-15T12:47:46;0.70;;;0.70;;
4794;SDS011;2411;47.060;15.064;2023-03-15T12:53:03;0.73;;;0.57;;
4794;SDS011;2411;47.060;15.064;2023-03-15T12:55:38;0.50;;;0.50;;
4794;SDS011;2411;47.060;15.064;2023-03-15T12:58:08;1.17;;;0.70;;
4794;SDS011;2411;47.060;15.064;2023-03-15T13:00:39;1.07;;;0.50;;
4794;SDS011;2411;47.060;15.064;2023-03-15T13:03:12;0.53;;;0.53;;
4794;SDS011;2411;47.060;15.064;2023-03-15T13:08:30;0.50;;;0.50;;
4794;SDS011;2411;47.060;15.064;2023-03-15T13:13:59;0.50;;;0.50;;
4794;SDS011;2411;47.060;15.064;2023-03-15T13:16:52;0.40;;;0.40;;
4794;SDS011;2411;47.060;15.064;2023-03-15T13:19:41;0.60;;;0.60;;
4794;SDS011;2411;47.060;15.064;2023-03-15T13:22:16;0.50;;;0.50;;
4794;SDS011;2411;47.060;15.064;2023-03-15T13:28:06;0.50;;;0.50;;
4794;SDS011;2411;47.060;15.064;2023-03-15T13:31:09;0.50;;;0.50;;
4794;SDS011;2411;47.060;15.064;2023-03-15T13:33:39;0.40;;;0.40;;
4794;SDS011;2411;47.060;15.064;2023-03-15T13:36:15;0.50;;;0.50;;
4794;SDS011;2411;47.060;15.064;2023-03-15T13:38:50;0.50;;;0.50;;
4794;SDS011;2411;47.060;15.064;2023-03-15T13:41:20;0.83;;;0.50;;
4794;SDS011;2411;47.060;15.064;2023-03-15T13:43:56;0.90;;;0.57;;
4794;SDS011;2411;47.060;15.064;2023-03-15T13:46:29;1.63;;;0.67;;
4794;SDS011;2411;47.060;15.064;2023-03-15T13:48:56;0.60;;;0.40;;
4794;SDS011;2411;47.060;15.064;2023-03-15T13:51:27;0.40;;;0.40;;
4794;SDS011;2411;47.060;15.064;2023-03-15T13:54:17;0.70;;;0.50;;
4794;SDS011;2411;47.060;15.064;2023-03-15T14:02:37;1.00;;;0.43;;
4794;SDS011;2411;47.060;15.064;2023-03-15T14:05:14;2.80;;;0.70;;
4794;SDS011;2411;47.060;15.064;2023-03-15T14:07:57;0.77;;;0.60;;
4794;SDS011;2411;47.060;15.064;2023-03-15T14:16:04;1.50;;;0.60;;
4794;SDS011;2411;47.060;15.064;2023-03-15T14:18:35;1.50;;;0.50;;
4794;SDS011;2411;47.060;15.064;2023-03-15T14:21:12;0.50;;;0.50;;
4794;SDS011;2411;47.060;15.064;2023-03-15T14:23:42;0.63;;;0.53;;
4794;SDS011;2411;47.060;15.064;2023-03-15T14:28:48;1.00;;;0.57;;
4794;SDS011;2411;47.060;15.064;2023-03-15T14:31:24;0.70;;;0.57;;
4794;SDS011;2411;47.060;15.064;2023-03-15T14:33:56;1.03;;;0.50;;
4794;SDS011;2411;47.060;15.064;2023-03-15T14:36:44;0.70;;;0.40;;
4794;SDS011;2411;47.060;15.064;2023-03-15T14:39:36;3.03;;;0.50;;
4794;SDS011;2411;47.060;15.064;2023-03-15T14:42:05;0.50;;;0.50;;
4794;SDS011;2411;47.060;15.064;2023-03-15T14:44:36;0.50;;;0.50;;
4794;SDS011;2411;47.060;15.064;2023-03-15T14:47:13;0.50;;;0.50;;
4794;SDS011;2411;47.060;15.064;2023-03-15T14:49:42;0.60;;;0.60;;
4794;SDS011;2411;47.060;15.064;2023-03-15T14:52:12;0.40;;;0.40;;
4794;SDS011;2411;47.060;15.064;2023-03-15T14:54:41;1.30;;;0.60;;
4794;SDS011;2411;47.060;15.064;2023-03-15T14:57:13;0.50;;;0.50;;
4794;SDS011;2411;47.060;15.064;2023-03-15T14:59:43;1.43;;;0.70;;
4794;SDS011;2411;47.060;15.064;2023-03-15T15:02:16;0.90;;;0.70;;
4794;SDS011;2411;47.060;15.064;2023-03-15T15:04:44;1.70;;;0.87;;
4794;SDS011;2411;47.060;15.064;2023-03-15T15:07:13;1.23;;;0.50;;
4794;SDS011;2411;47.060;15.064;2023-03-15T15:09:45;0.43;;;0.43;;
4794;SDS011;2411;47.060;15.064;2023-03-15T15:12:14;1.80;;;0.70;;
4794;SDS011;2411;47.060;15.064;2023-03-15T15:14:41;0.63;;;0.63;;
4794;SDS011;2411;47.060;15.064;2023-03-15T15:17:08;1.27;;;0.73;;
4794;SDS011;2411;47.060;15.064;2023-03-15T15:19:36;0.80;;;0.53;;
4794;SDS011;2411;47.060;15.064;2023-03-15T15:22:03;0.50;;;0.50;;
4794;SDS011;2411;47.060;15.064;2023-03-15T15:24:31;1.87;;;0.50;;
4794;SDS011;2411;47.060;15.064;2023-03-15T15:26:58;1.03;;;0.70;;
4794;SDS011;2411;47.060;15.064;2023-03-15T15:29:25;1.03;;;0.80;;
4794;SDS011;2411;47.060;15.064;2023-03-15T15:31:52;0.60;;;0.60;;
4794;SDS011;2411;47.060;15.064;2023-03-15T15:34:19;2.10;;;0.60;;
4794;SDS011;2411;47.060;15.064;2023-03-15T15:36:46;1.10;;;0.80;;
4794;SDS011;2411;47.060;15.064;2023-03-15T15:39:21;0.87;;;0.60;;
4794;SDS011;2411;47.060;15.064;2023-03-15T15:41:51;0.90;;;0.70;;
4794;SDS011;2411;47.060;15.064;2023-03-15T15:44:19;0.70;;;0.70;;
4794;SDS011;2411;47.060;15.064;2023-03-15T15:46:47;0.60;;;0.60;;
4794;SDS011;2411;47.060;15.064;2023-03-15T15:49:15;0.63;;;0.50;;
4794;SDS011;2411;47.060;15.064;2023-03-15T15:51:42;0.67;;;0.50;;
4794;SDS011;2411;47.060;15.064;2023-03-15T15:54:15;1.03;;;0.70;;
4794;SDS011;2411;47.060;15.064;2023-03-15T15:56:48;1.90;;;0.63;;
4794;SDS011;2411;47.060;15.064;2023-03-15T15:59:17;0.60;;;0.60;;
4794;SDS011;2411;47.060;15.064;2023-03-15T16:01:45;0.90;;;0.70;;
4794;SDS011;2411;47.060;15.064;2023-03-15T16:04:26;0.67;;;0.67;;
4794;SDS011;2411;47.060;15.064;2023-03-15T16:06:58;0.50;;;0.50;;
4794;SDS011;2411;47.060;15.064;2023-03-15T16:09:28;2.30;;;0.70;;
4794;SDS011;2411;47.060;15.064;2023-03-15T16:11:57;1.50;;;0.63;;
4794;SDS011;2411;47.060;15.064;2023-03-15T16:14:24;1.03;;;0.80;;
4794;SDS011;2411;47.060;15.064;2023-03-15T16:16:51;1.40;;;0.80;;
4794;SDS011;2411;47.060;15.064;2023-03-15T16:19:18;1.10;;;0.80;;
4794;SDS011;2411;47.060;15.064;2023-03-15T16:21:46;0.80;;;0.80;;
4794;SDS011;2411;47.060;15.064;2023-03-15T16:24:18;0.70;;;0.70;;
4794;SDS011;2411;47.060;15.064;2023-03-15T16:26:48;1.03;;;0.50;;
4794;SDS011;2411;47.060;15.064;2023-03-15T16:31:45;0.60;;;0.60;;
4794;SDS011;2411;47.060;15.064;2023-03-15T16:34:13;0.50;;;0.50;;
4794;SDS011;2411;47.060;15.064;2023-03-15T16:36:43;2.93;;;0.70;;
4794;SDS011;2411;47.060;15.064;2023-03-15T16:39:15;0.83;;;0.80;;
4794;SDS011;2411;47.060;15.064;2023-03-15T16:41:42;0.80;;;0.70;;
4794;SDS011;2411;47.060;15.064;2023-03-15T16:44:11;2.60;;;2.40;;
4794;SDS011;2411;47.060;15.064;2023-03-15T16:46:40;0.70;;;0.70;;
4794;SDS011;2411;47.060;15.064;2023-03-15T16:49:08;0.80;;;0.80;;
4794;SDS011;2411;47.060;15.064;2023-03-15T16:51:36;0.70;;;0.70;;
4794;SDS011;2411;47.060;15.064;2023-03-15T16:54:31;0.80;;;0.70;;
4794;SDS011;2411;47.060;15.064;2023-03-15T16:57:10;1.57;;;0.83;;
4794;SDS011;2411;47.060;15.064;2023-03-15T16:59:42;1.10;;;0.70;;
4794;SDS011;2411;47.060;15.064;2023-03-15T17:02:27;1.13;;;0.83;;
4794;SDS011;2411;47.060;15.064;2023-03-15T17:04:54;0.70;;;0.70;;
4794;SDS011;2411;47.060;15.064;2023-03-15T17:07:24;1.03;;;0.70;;
4794;SDS011;2411;47.060;15.064;2023-03-15T17:09:56;1.47;;;0.83;;
4794;SDS011;2411;47.060;15.064;2023-03-15T17:12:26;1.10;;;1.00;;
4794;SDS011;2411;47.060;15.064;2023-03-15T17:14:55;1.17;;;1.17;;
4794;SDS011;2411;47.060;15.064;2023-03-15T17:17:25;1.80;;;1.70;;
4794;SDS011;2411;47.060;15.064;2023-03-15T17:19:53;1.10;;;1.00;;
4794;SDS011;2411;47.060;15.064;2023-03-15T17:22:20;1.33;;;0.90;;
4794;SDS011;2411;47.060;15.064;2023-03-15T17:24:48;1.53;;;1.43;;
4794;SDS011;2411;47.060;15.064;2023-03-15T17:27:20;1.10;;;1.10;;
4794;SDS011;2411;47.060;15.064;2023-03-15T17:29:51;0.90;;;0.90;;
4794;SDS011;2411;47.060;15.064;2023-03-15T17:32:18;4.90;;;3.10;;
4794;SDS011;2411;47.060;15.064;2023-03-15T17:34:46;4.40;;;1.97;;
4794;SDS011;2411;47.060;15.064;2023-03-15T17:37:13;1.93;;;1.77;;
4794;SDS011;2411;47.060;15.064;2023-03-15T17:39:42;2.27;;;2.17;;
4794;SDS011;2411;47.060;15.064;2023-03-15T17:42:13;0.70;;;0.70;;
4794;SDS011;2411;47.060;15.064;2023-03-15T17:44:41;0.70;;;0.70;;
4794;SDS011;2411;47.060;15.064;2023-03-15T17:47:09;5.03;;;0.90;;
4794;SDS011;2411;47.060;15.064;2023-03-15T17:49:37;1.03;;;1.03;;
4794;SDS011;2411;47.060;15.064;2023-03-15T17:52:11;1.07;;;0.80;;
4794;SDS011;2411;47.060;15.064;2023-03-15T17:54:40;3.17;;;1.60;;
4794;SDS011;2411;47.060;15.064;2023-03-15T17:57:09;5.80;;;0.90;;
4794;SDS011;2411;47.060;15.064;2023-03-15T17:59:38;2.00;;;0.70;;
4794;SDS011;2411;47.060;15.064;2023-03-15T18:02:07;2.30;;;0.60;;
4794;SDS011;2411;47.060;15.064;2023-03-15T18:04:42;3.20;;;1.00;;
4794;SDS011;2411;47.060;15.064;2023-03-15T18:07:09;0.77;;;0.77;;
4794;SDS011;2411;47.060;15.064;2023-03-15T18:09:36;0.90;;;0.90;;
4794;SDS011;2411;47.060;15.064;2023-03-15T18:12:04;2.63;;;0.80;;
4794;SDS011;2411;47.060;15.064;2023-03-15T18:14:31;1.90;;;1.10;;
4794;SDS011;2411;47.060;15.064;2023-03-15T18:17:02;1.73;;;1.17;;
4794;SDS011;2411;47.060;15.064;2023-03-15T18:19:30;1.00;;;0.80;;
4794;SDS011;2411;47.060;15.064;2023-03-15T18:21:57;1.30;;;0.90;;
4794;SDS011;2411;47.060;15.064;2023-03-15T18:24:24;1.10;;;1.10;;
4794;SDS011;2411;47.060;15.064;2023-03-15T18:26:51;1.40;;;1.30;;
4794;SDS011;2411;47.060;15.064;2023-03-15T18:29:18;2.33;;;1.70;;
4794;SDS011;2411;47.060;15.064;2023-03-15T18:31:46;3.33;;;2.10;;
4794;SDS011;2411;47.060;15.064;2023-03-15T18:34:13;3.60;;;1.50;;
4794;SDS011;2411;47.060;15.064;2023-03-15T18:36:42;8.30;;;1.60;;
4794;SDS011;2411;47.060;15.064;2023-03-15T18:39:09;5.63;;;3.27;;
4794;SDS011;2411;47.060;15.064;2023-03-15T18:41:36;6.30;;;3.20;;
4794;SDS011;2411;47.060;15.064;2023-03-15T18:44:04;7.40;;;3.40;;
4794;SDS011;2411;47.060;15.064;2023-03-15T18:46:31;2.70;;;1.67;;
4794;SDS011;2411;47.060;15.064;2023-03-15T18:48:58;1.43;;;1.30;;
4794;SDS011;2411;47.060;15.064;2023-03-15T18:51:25;3.40;;;1.30;;
4794;SDS011;2411;47.060;15.064;2023-03-15T18:53:54;1.53;;;1.20;;
4794;SDS011;2411;47.060;15.064;2023-03-15T18:56:25;2.10;;;1.47;;
4794;SDS011;2411;47.060;15.064;2023-03-15T18:58:59;1.50;;;1.10;;
4794;SDS011;2411;47.060;15.064;2023-03-15T19:01:41;1.00;;;1.00;;
4794;SDS011;2411;47.060;15.064;2023-03-15T19:04:09;1.43;;;1.23;;
4794;SDS011;2411;47.060;15.064;2023-03-15T19:06:36;1.50;;;1.40;;
4794;SDS011;2411;47.060;15.064;2023-03-15T19:09:04;1.20;;;1.20;;
4794;SDS011;2411;47.060;15.064;2023-03-15T19:11:35;1.20;;;1.10;;
4794;SDS011;2411;47.060;15.064;2023-03-15T19:14:07;0.77;;;0.77;;
4794;SDS011;2411;47.060;15.064;2023-03-15T19:16:36;1.20;;;1.10;;
4794;SDS011;2411;47.060;15.064;2023-03-15T19:19:03;1.27;;;0.70;;
4794;SDS011;2411;47.060;15.064;2023-03-15T19:21:30;0.70;;;0.70;;
4794;SDS011;2411;47.060;15.064;2023-03-15T19:23:58;0.70;;;0.70;;
4794;SDS011;2411;47.060;15.064;2023-03-15T19:26:25;0.60;;;0.60;;
4794;SDS011;2411;47.060;15.064;2023-03-15T19:28:52;0.70;;;0.70;;
4794;SDS011;2411;47.060;15.064;2023-03-15T19:31:19;0.90;;;0.90;;
4794;SDS011;2411;47.060;15.064;2023-03-15T19:33:47;4.73;;;1.17;;
4794;SDS011;2411;47.060;15.064;2023-03-15T19:36:14;0.87;;;0.83;;
4794;SDS011;2411;47.060;15.064;2023-03-15T19:38:42;1.20;;;1.00;;
4794;SDS011;2411;47.060;15.064;2023-03-15T19:41:11;1.50;;;1.00;;
4794;SDS011;2411;47.060;15.064;2023-03-15T19:43:39;2.20;;;1.07;;
4794;SDS011;2411;47.060;15.064;2023-03-15T19:46:08;3.33;;;2.47;;
4794;SDS011;2411;47.060;15.064;2023-03-15T19:48:39;2.80;;;2.60;;
4794;SDS011;2411;47.060;15.064;2023-03-15T19:51:06;2.30;;;1.60;;
4794;SDS011;2411;47.060;15.064;2023-03-15T19:54:15;4.50;;;1.33;;
4794;SDS011;2411;47.060;15.064;2023-03-15T19:57:20;2.10;;;1.73;;
4794;SDS011;2411;47.060;15.064;2023-03-15T20:00:53;4.07;;;2.20;;
4794;SDS011;2411;47.060;15.064;2023-03-15T20:04:49;1.30;;;1.20;;
4794;SDS011;2411;47.060;15.064;2023-03-15T20:11:45;2.03;;;1.33;;
4794;SDS011;2411;47.060;15.064;2023-03-15T20:14:37;11.30;;;1.57;;
4794;SDS011;2411;47.060;15.064;2023-03-15T20:17:37;4.00;;;1.10;;
4794;SDS011;2411;47.060;15.064;2023-03-15T20:20:05;1.10;;;1.00;;
4794;SDS011;2411;47.060;15.064;2023-03-15T20:22:37;1.10;;;1.10;;
4794;SDS011;2411;47.060;15.064;2023-03-15T20:25:08;1.23;;;0.97;;
4794;SDS011;2411;47.060;15.064;2023-03-15T20:27:36;1.53;;;1.43;;
4794;SDS011;2411;47.060;15.064;2023-03-15T20:30:04;1.60;;;1.20;;
4794;SDS011;2411;47.060;15.064;2023-03-15T20:32:33;1.10;;;1.10;;
4794;SDS011;2411;47.060;15.064;2023-03-15T20:35:00;1.90;;;0.93;;